Time;durP1;ratioP1;P1;durP2;ratioP2;P2;SDS_P1;SDS_P2;PMS_P1;PMS_P2;Temp;Humidity;BMP_temperature;BMP_pressure;BME280_temperature;BME280_humidity;BME280_pressure;Samples;Min_cycle;Max_cycle;Signal;HPM_P1;HPM_P2
2023/08/19 00:01:08;;;;;;;;;13.00;12.00;;;;;22.40;83.73;101228.84;4950677;28;8838;-67
2023/08/19 00:03:35;;;;;;;;;16.00;8.75;;;;;22.41;84.12;101215.94;4951539;28;8924;-67
2023/08/19 00:06:07;;;;;;;;;10.75;8.00;;;;;22.41;83.87;101221.44;4952999;28;9553;-68
2023/08/19 00:08:34;;;;;;;;;12.00;10.25;;;;;22.41;84.08;101215.94;4951010;28;8849;-66
2023/08/19 00:11:02;;;;;;;;;16.75;15.75;;;;;22.40;84.06;101208.78;4951457;28;8977;-67
2023/08/19 00:13:29;;;;;;;;;12.00;10.50;;;;;22.39;84.01;101204.38;4952878;28;8853;-67
2023/08/19 00:15:56;;;;;;;;;11.50;11.50;;;;;22.39;84.11;101209.88;4951222;28;9603;-67
2023/08/19 00:18:23;;;;;;;;;13.75;12.25;;;;;22.39;84.33;101209.88;4948561;28;8830;-67
2023/08/19 00:20:50;;;;;;;;;13.25;13.25;;;;;22.39;84.29;101209.88;4935622;28;8846;-67
2023/08/19 00:23:17;;;;;;;;;15.25;14.00;;;;;22.41;84.43;101207.72;4937304;28;8860;-67
2023/08/19 00:25:43;;;;;;;;;12.00;12.00;;;;;22.40;84.20;101203.28;4943284;28;9561;-66
2023/08/19 00:28:10;;;;;;;;;13.00;11.25;;;;;22.40;84.12;101190.44;4952189;28;8822;-67
2023/08/19 00:30:36;;;;;;;;;12.50;12.00;;;;;22.41;84.29;101203.03;4934917;28;8920;-67
2023/08/19 00:33:03;;;;;;;;;13.00;13.00;;;;;22.42;84.56;101193.72;4952700;28;8838;-67
2023/08/19 00:35:32;;;;;;;;;16.50;16.00;;;;;22.42;84.30;101195.63;4934594;28;8880;-67
2023/08/19 00:37:58;;;;;;;;;15.00;14.75;;;;;22.42;84.57;101190.16;4951140;28;8832;-67
2023/08/19 00:40:25;;;;;;;;;17.25;17.25;;;;;22.41;84.41;101188.50;4948044;28;8861;-67
2023/08/19 00:42:51;;;;;;;;;17.75;16.00;;;;;22.40;84.57;101187.69;4951410;28;8861;-67
2023/08/19 00:45:18;;;;;;;;;16.75;15.00;;;;;22.42;84.83;101195.63;4952389;28;8852;-67
2023/08/19 00:47:45;;;;;;;;;16.50;16.25;;;;;22.41;84.69;101181.09;4949838;28;8853;-67
2023/08/19 00:50:13;;;;;;;;;18.25;16.75;;;;;22.42;84.73;101187.41;4952897;28;8953;-67
2023/08/19 00:52:40;;;;;;;;;14.00;14.00;;;;;22.42;84.51;101177.25;4950115;28;8845;-67
2023/08/19 00:55:07;;;;;;;;;25.25;18.50;;;;;22.40;84.65;101171.22;4952219;28;8858;-67
2023/08/19 00:57:35;;;;;;;;;21.75;17.75;;;;;22.41;84.87;101177.53;4934430;28;8904;-67
2023/08/19 01:00:03;;;;;;;;;11.50;11.50;;;;;22.40;84.69;101168.47;4931227;28;8850;-66
2023/08/19 01:02:30;;;;;;;;;18.25;17.75;;;;;22.41;84.80;101174.78;4942195;28;9618;-67
2023/08/19 01:04:57;;;;;;;;;12.25;12.00;;;;;22.41;84.81;101172.88;4948624;28;8875;-67
2023/08/19 01:07:33;;;;;;;;;13.75;13.75;;;;;22.43;84.68;101175.34;4951965;28;8841;-67
2023/08/19 01:10:24;;;;;;;;;14.75;14.50;;;;;22.41;84.72;101170.13;4951756;28;8806;-67
2023/08/19 01:13:11;;;;;;;;;9.00;9.00;;;;;22.42;84.50;101159.97;4951501;28;8896;-67
2023/08/19 01:15:53;;;;;;;;;14.50;14.50;;;;;22.44;84.56;101160.53;4950478;28;8845;-67
2023/08/19 01:18:23;;;;;;;;;14.25;12.50;;;;;22.43;84.72;101150.66;4952664;28;8840;-67
2023/08/19 01:20:52;;;;;;;;;17.00;17.00;;;;;22.44;84.69;101155.88;4951688;29;8849;-67
2023/08/19 01:23:33;;;;;;;;;21.25;17.25;;;;;22.43;84.69;101151.47;4933550;29;8940;-67
2023/08/19 01:26:00;;;;;;;;;15.50;15.00;;;;;22.44;84.62;101149.53;4940060;28;9565;-66
2023/08/19 01:28:26;;;;;;;;;17.00;16.50;;;;;22.43;84.44;101145.16;4950548;29;8850;-67
2023/08/19 01:30:53;;;;;;;;;17.00;15.25;;;;;22.44;84.35;101141.31;4934763;29;8838;-67
2023/08/19 01:33:21;;;;;;;;;21.00;17.25;;;;;22.45;84.63;101140.25;4947021;28;8846;-67
2023/08/19 01:36:12;;;;;;;;;16.50;15.75;;;;;22.45;84.48;101140.25;4948046;29;8844;-67
2023/08/19 01:38:52;;;;;;;;;14.50;13.00;;;;;22.47;84.28;101132.56;4951616;29;8837;-66
2023/08/19 01:41:22;;;;;;;;;11.50;11.25;;;;;22.46;84.53;101134.47;4950560;29;8930;-67
2023/08/19 01:43:49;;;;;;;;;14.25;12.50;;;;;22.48;84.63;101125.16;4930784;29;8857;-66
2023/08/19 01:46:15;;;;;;;;;16.50;16.25;;;;;22.47;84.20;101127.06;4949988;28;8845;-67
2023/08/19 01:48:42;;;;;;;;;14.50;13.50;;;;;22.47;84.35;101124.34;4950505;29;8862;-67
2023/08/19 01:51:09;;;;;;;;;14.00;13.75;;;;;22.49;84.36;101127.66;4933983;29;9628;-67
2023/08/19 01:53:35;;;;;;;;;14.25;13.75;;;;;22.50;84.16;101129.28;4933369;28;8837;-67
2023/08/19 01:56:03;;;;;;;;;16.00;15.00;;;;;22.50;84.13;101132.03;4951686;28;8892;-67
2023/08/19 01:58:29;;;;;;;;;14.00;14.00;;;;;22.51;84.34;101132.84;4934670;28;8853;-66
2023/08/19 02:00:56;;;;;;;;;19.75;17.75;;;;;22.51;84.27;101130.94;4939259;28;9846;-67
2023/08/19 02:03:22;;;;;;;;;13.50;12.50;;;;;22.51;84.29;101125.44;4935743;28;8889;-67
2023/08/19 02:05:49;;;;;;;;;13.25;12.00;;;;;22.53;84.32;101128.78;4937873;28;8841;-67
2023/08/19 02:08:15;;;;;;;;;15.75;14.25;;;;;22.54;84.06;101124.09;4955092;28;8832;-67
2023/08/19 02:10:42;;;;;;;;;17.00;15.75;;;;;22.54;84.18;101122.19;4954850;28;8857;-67
2023/08/19 02:13:09;;;;;;;;;18.50;17.50;;;;;22.56;84.11;101105.44;4953392;28;8853;-67
2023/08/19 02:15:36;;;;;;;;;12.75;12.75;;;;;22.56;84.23;101117.25;4937355;28;8874;-67
2023/08/19 02:18:02;;;;;;;;;16.00;15.75;;;;;22.57;84.24;101107.13;4948039;28;8850;-67
2023/08/19 02:20:29;;;;;;;;;15.50;14.50;;;;;22.56;84.29;101106.25;4937631;28;8968;-68
2023/08/19 02:22:59;;;;;;;;;15.75;15.75;;;;;22.56;84.30;101109.00;4936987;28;8825;-67
2023/08/19 02:25:25;;;;;;;;;14.25;13.00;;;;;22.58;84.33;101101.34;4949833;28;8877;-66
2023/08/19 02:27:52;;;;;;;;;18.75;16.00;;;;;22.57;84.38;101102.44;4936726;28;8856;-67
2023/08/19 02:30:19;;;;;;;;;22.00;20.00;;;;;22.57;84.19;101101.63;4933160;29;8866;-67
2023/08/19 02:32:46;;;;;;;;;20.25;17.25;;;;;22.57;84.43;101096.97;4953385;28;8826;-67
2023/08/19 02:35:13;;;;;;;;;15.75;15.25;;;;;22.57;84.30;101096.97;4940434;29;8841;-67
2023/08/19 02:37:40;;;;;;;;;18.75;16.25;;;;;22.55;84.36;101099.13;4952646;28;9577;-67
2023/08/19 02:40:07;;;;;;;;;19.00;17.50;;;;;22.56;84.52;101094.47;4931907;29;8843;-67
2023/08/19 02:42:36;;;;;;;;;15.25;15.00;;;;;22.56;84.54;101091.72;4942886;29;8847;-67
2023/08/19 02:45:03;;;;;;;;;23.25;22.50;;;;;22.56;84.59;101088.97;4934179;29;8868;-67
2023/08/19 02:47:29;;;;;;;;;19.25;18.75;;;;;22.53;84.53;101082.13;4951227;28;8850;-67
2023/08/19 02:49:56;;;;;;;;;19.25;19.25;;;;;22.54;84.73;101086.50;4935417;28;8841;-67
2023/08/19 02:52:22;;;;;;;;;14.50;14.25;;;;;22.55;84.76;101085.41;4954424;28;9571;-67
2023/08/19 02:54:49;;;;;;;;;17.00;15.50;;;;;22.55;84.85;101087.34;4939972;28;8853;-67
2023/08/19 02:57:15;;;;;;;;;12.00;12.00;;;;;22.56;84.65;101089.81;4936757;28;8834;-67
2023/08/19 02:59:42;;;;;;;;;17.75;17.75;;;;;22.57;84.53;101087.91;4934019;28;8922;-67
2023/08/19 03:02:08;;;;;;;;;18.50;18.25;;;;;22.58;84.70;101089.56;4951234;28;8976;-66
2023/08/19 03:04:35;;;;;;;;;16.75;14.75;;;;;22.57;84.58;101079.69;4929002;28;9598;-67
2023/08/19 03:07:02;;;;;;;;;18.50;18.00;;;;;22.58;84.28;101081.31;4942432;28;8854;-66
2023/08/19 03:09:28;;;;;;;;;15.75;15.75;;;;;22.60;84.67;101081.88;4936428;28;8840;-68
2023/08/19 03:11:54;;;;;;;;;16.75;16.75;;;;;22.60;84.42;101079.13;4932508;28;9602;-67
2023/08/19 03:14:21;;;;;;;;;20.50;20.50;;;;;22.59;84.47;101074.72;4948103;28;8834;-67
2023/08/19 03:16:49;;;;;;;;;17.50;16.75;;;;;22.60;84.85;101074.44;4953895;28;8892;-67
2023/08/19 03:19:16;;;;;;;;;17.75;17.25;;;;;22.60;84.56;101074.44;4933447;28;8876;-67
2023/08/19 03:21:43;;;;;;;;;18.25;16.00;;;;;22.60;84.45;101079.94;4952290;28;8981;-67
2023/08/19 03:24:10;;;;;;;;;21.25;18.25;;;;;22.60;84.51;101077.19;4936398;28;8861;-67
2023/08/19 03:26:37;;;;;;;;;20.50;18.25;;;;;22.62;84.51;101069.53;4953810;28;8842;-67
2023/08/19 03:29:04;;;;;;;;;20.75;20.75;;;;;22.63;84.47;101075.84;4952428;28;8833;-67
2023/08/19 03:31:31;;;;;;;;;20.50;20.50;;;;;22.63;84.47;101064.88;4935012;28;9430;-67
2023/08/19 03:33:58;;;;;;;;;20.25;19.00;;;;;22.63;84.33;101060.19;4935455;28;8838;-67
2023/08/19 03:36:25;;;;;;;;;15.50;15.25;;;;;22.63;84.46;101056.63;4933637;28;9015;-67
2023/08/19 03:38:51;;;;;;;;;16.75;16.75;;;;;22.63;84.33;101057.47;4951417;28;8826;-67
2023/08/19 03:41:18;;;;;;;;;19.00;18.00;;;;;22.65;84.35;101060.78;4949535;28;8834;-67
2023/08/19 03:43:44;;;;;;;;;17.50;17.25;;;;;22.66;84.25;101053.34;4932835;28;8863;-67
2023/08/19 03:46:11;;;;;;;;;16.00;16.00;;;;;22.66;84.40;101056.09;4936868;28;8862;-66
2023/08/19 03:48:37;;;;;;;;;18.00;17.75;;;;;22.67;84.23;101060.50;4953431;28;9569;-67
2023/08/19 03:51:04;;;;;;;;;19.50;19.50;;;;;22.67;84.05;101060.50;4933299;28;8842;-67
2023/08/19 03:53:30;;;;;;;;;17.25;17.00;;;;;22.67;84.25;101068.72;4953247;28;8841;-67
2023/08/19 03:55:56;;;;;;;;;22.25;20.00;;;;;22.65;84.20;101068.19;4941572;28;9028;-67
2023/08/19 03:58:23;;;;;;;;;18.00;16.75;;;;;22.66;84.17;101069.81;4932674;29;8951;-67
2023/08/19 04:00:49;;;;;;;;;25.75;23.00;;;;;22.65;84.13;101065.44;4933798;29;8812;-67
2023/08/19 04:03:23;;;;;;;;;19.00;18.25;;;;;22.65;84.28;101048.97;4938651;28;8846;-67
2023/08/19 04:05:49;;;;;;;;;19.00;18.25;;;;;22.67;84.06;101047.59;4935992;28;9549;-67
2023/08/19 04:08:16;;;;;;;;;15.00;15.00;;;;;22.66;84.15;101058.84;4950838;28;8877;-67
2023/08/19 04:10:44;;;;;;;;;23.25;19.00;;;;;22.67;84.05;101060.50;4951570;28;8948;-67
2023/08/19 04:13:11;;;;;;;;;17.50;17.25;;;;;22.66;84.07;101056.91;4935916;28;8861;-67
2023/08/19 04:15:38;;;;;;;;;24.25;20.75;;;;;22.67;83.91;101064.06;4948484;28;8966;-67
2023/08/19 04:18:07;;;;;;;;;18.00;17.00;;;;;22.67;84.19;101065.97;4949472;28;9600;-67
2023/08/19 04:20:40;;;;;;;;;19.50;18.25;;;;;22.66;84.12;101048.69;4935034;28;8842;-67
2023/08/19 04:23:07;;;;;;;;;19.75;19.75;;;;;22.66;84.04;101050.63;4935948;28;9589;-67
2023/08/19 04:25:33;;;;;;;;;13.75;13.75;;;;;22.67;84.04;101044.84;4946201;28;8855;-67
2023/08/19 04:28:00;;;;;;;;;17.50;16.75;;;;;22.68;83.93;101051.16;4950463;28;8850;-67
2023/08/19 04:30:28;;;;;;;;;18.25;18.25;;;;;22.68;83.85;101059.38;4935241;28;8813;-66
2023/08/19 04:32:58;;;;;;;;;20.33;20.00;;;;;22.66;83.89;101067.91;4935663;28;8849;-67
2023/08/19 04:35:28;;;;;;;;;19.00;19.00;;;;;22.68;83.77;101065.69;4938384;28;8858;-67
2023/08/19 04:37:55;;;;;;;;;20.00;19.25;;;;;22.70;83.74;101079.16;4934826;28;8833;-67
2023/08/19 04:40:22;;;;;;;;;16.25;15.50;;;;;22.69;83.49;101083.00;4950552;28;8834;-67
2023/08/19 04:42:49;;;;;;;;;20.50;18.50;;;;;22.70;83.41;101081.91;4933497;28;8957;-67
2023/08/19 04:45:16;;;;;;;;;17.75;16.50;;;;;22.70;83.48;101079.16;4938863;28;8859;-67
2023/08/19 04:47:46;;;;;;;;;14.75;14.25;;;;;22.71;83.30;101081.63;4934983;28;9687;-67
2023/08/19 04:50:12;;;;;;;;;17.00;17.00;;;;;22.73;83.24;101072.28;4938391;28;8847;-67
2023/08/19 04:52:39;;;;;;;;;22.00;19.75;;;;;22.73;83.18;101072.28;4958745;28;8937;-67
2023/08/19 04:55:08;;;;;;;;;24.25;22.25;;;;;22.71;83.26;101061.59;4949691;28;8964;-67
2023/08/19 04:57:35;;;;;;;;;23.50;19.50;;;;;22.71;83.30;101062.41;4946383;28;8859;-68
2023/08/19 05:00:02;;;;;;;;;21.25;21.25;;;;;22.70;83.25;101060.78;4929961;29;8890;-67
2023/08/19 05:02:29;;;;;;;;;23.50;21.00;;;;;22.73;83.29;101062.16;4945284;28;8842;-67
2023/08/19 05:04:55;;;;;;;;;20.25;17.50;;;;;22.75;83.10;101067.38;4936807;28;8948;-67
2023/08/19 05:07:23;;;;;;;;;20.75;20.75;;;;;22.76;82.94;101067.09;4933402;28;8842;-67
2023/08/19 05:09:50;;;;;;;;;19.25;17.75;;;;;22.78;83.03;101066.84;4933566;28;8830;-67
2023/08/19 05:12:16;;;;;;;;;17.75;17.00;;;;;22.78;82.99;101064.09;4931763;28;10322;-67
2023/08/19 05:14:43;;;;;;;;;20.75;16.50;;;;;22.80;82.91;101075.63;4949671;28;8924;-67
2023/08/19 05:17:09;;;;;;;;;17.50;16.50;;;;;22.81;82.77;101072.63;4950812;29;8820;-67
2023/08/19 05:19:36;;;;;;;;;20.50;19.75;;;;;22.83;82.62;101069.59;4941453;29;9491;-67
2023/08/19 05:22:03;;;;;;;;;17.25;17.25;;;;;22.83;82.59;101059.44;4952565;28;8855;-67
2023/08/19 05:24:29;;;;;;;;;17.50;17.50;;;;;22.84;82.49;101060.25;4952052;28;8873;-68
2023/08/19 05:26:56;;;;;;;;;14.50;14.50;;;;;22.86;82.56;101060.81;4931589;29;8855;-67
2023/08/19 05:29:23;;;;;;;;;15.75;15.00;;;;;22.87;82.61;101062.47;4933130;29;8848;-67
2023/08/19 05:31:50;;;;;;;;;17.25;15.00;;;;;22.88;82.44;101069.59;4932690;29;8852;-67
2023/08/19 05:34:16;;;;;;;;;13.50;13.50;;;;;22.90;82.41;101067.44;4933191;28;8931;-67
2023/08/19 05:36:43;;;;;;;;;14.25;13.50;;;;;22.90;82.35;101065.53;4954457;28;9157;-67
2023/08/19 05:39:10;;;;;;;;;15.75;15.75;;;;;22.90;82.19;101061.94;4954825;28;8849;-67
2023/08/19 05:41:36;;;;;;;;;14.25;14.25;;;;;22.91;82.36;101067.16;4954207;28;8936;-67
2023/08/19 05:44:03;;;;;;;;;10.50;9.25;;;;;22.94;82.18;101082.28;4955525;28;8870;-66
2023/08/19 05:46:29;;;;;;;;;16.00;16.00;;;;;22.95;82.17;101075.69;4938472;28;9569;-67
2023/08/19 05:48:56;;;;;;;;;14.50;14.25;;;;;22.95;82.34;101072.94;4955650;28;8876;-67
2023/08/19 05:51:23;;;;;;;;;15.75;13.75;;;;;22.95;82.58;101084.75;4955083;28;8856;-67
2023/08/19 05:53:49;;;;;;;;;15.50;14.50;;;;;22.95;82.48;101083.94;4953270;28;9507;-67
2023/08/19 05:56:16;;;;;;;;;10.00;10.00;;;;;22.95;82.78;101084.75;4955376;28;8833;-67
2023/08/19 05:58:42;;;;;;;;;18.50;17.00;;;;;22.94;82.95;101090.53;4954542;28;8845;-67
2023/08/19 06:01:08;;;;;;;;;19.33;19.00;;;;;22.93;83.38;101075.16;4952347;28;8868;-67
2023/08/19 06:03:36;;;;;;;;;19.50;19.50;;;;;22.93;83.44;101095.19;4954014;28;8842;-67
2023/08/19 06:06:05;;;;;;;;;19.25;18.50;;;;;22.91;83.80;101110.28;4960211;28;8857;-67
2023/08/19 06:08:33;;;;;;;;;19.75;18.00;;;;;22.90;83.76;101122.31;4938866;28;8844;-67
2023/08/19 06:11:06;;;;;;;;;23.50;20.50;;;;;22.91;83.98;101115.75;4930068;29;8846;-67
2023/08/19 06:13:35;;;;;;;;;20.50;20.50;;;;;22.90;84.12;101114.09;4953486;28;8988;-67
2023/08/19 06:16:03;;;;;;;;;21.00;20.50;;;;;22.90;84.25;101103.13;4936122;28;8870;-67
2023/08/19 06:18:30;;;;;;;;;19.75;19.00;;;;;22.90;84.52;101109.44;4936966;28;8960;-67
2023/08/19 06:20:57;;;;;;;;;18.50;18.50;;;;;22.89;84.63;101106.97;4953722;28;8845;-66
2023/08/19 06:23:24;;;;;;;;;16.25;15.75;;;;;22.90;84.53;101108.59;4961221;28;8864;-66
2023/08/19 06:25:53;;;;;;;;;16.50;16.50;;;;;22.89;84.58;101110.53;4954144;28;8857;-67
2023/08/19 06:28:21;;;;;;;;;18.25;16.75;;;;;22.90;84.81;101117.69;4952897;28;8910;-67
2023/08/19 06:30:48;;;;;;;;;17.25;16.00;;;;;22.91;84.78;101126.75;4950392;28;8924;-67
2023/08/19 06:33:16;;;;;;;;;18.00;18.00;;;;;22.90;84.62;101127.81;4936896;28;8837;-67
2023/08/19 06:35:51;;;;;;;;;17.25;17.25;;;;;22.90;85.00;101120.44;4954576;28;9016;-66
2023/08/19 06:38:20;;;;;;;;;18.50;17.75;;;;;22.92;84.85;101120.97;4936774;28;8850;-67
2023/08/19 06:40:56;;;;;;;;;15.50;13.50;;;;;22.95;84.94;101123.19;4947085;28;8834;-67
2023/08/19 06:43:25;;;;;;;;;16.25;12.75;;;;;23.00;84.89;101125.13;4936775;28;8861;-67
2023/08/19 06:45:55;;;;;;;;;16.75;15.50;;;;;23.05;84.98;101129.78;4950678;28;8846;-67
2023/08/19 06:48:23;;;;;;;;;12.25;11.00;;;;;23.08;84.82;101135.56;4952334;28;8864;-67
2023/08/19 06:50:51;;;;;;;;;17.75;17.75;;;;;23.17;84.84;101131.22;4935493;28;9169;-66
2023/08/19 06:53:18;;;;;;;;;16.00;14.75;;;;;23.22;84.59;101118.59;4958630;28;8916;-67
2023/08/19 06:55:54;;;;;;;;;22.00;18.75;;;;;23.25;84.17;101129.84;4951352;28;8932;-67
2023/08/19 06:58:26;;;;;;;;;19.50;19.50;;;;;23.26;83.96;101144.44;4951201;28;8928;-67
2023/08/19 07:00:59;;;;;;;;;19.25;19.25;;;;;23.28;83.85;101144.97;4954085;28;8952;-66
2023/08/19 07:03:29;;;;;;;;;25.50;23.00;;;;;23.26;83.82;101148.00;4954322;28;8850;-67
2023/08/19 07:05:58;;;;;;;;;18.50;18.50;;;;;23.29;83.73;101143.84;4951452;28;8885;-67
2023/08/19 07:08:26;;;;;;;;;18.25;18.25;;;;;23.32;83.56;101157.06;4951949;28;8852;-68
2023/08/19 07:10:54;;;;;;;;;18.50;18.00;;;;;23.36;83.51;101147.19;4951236;28;8892;-67
2023/08/19 07:13:21;;;;;;;;;19.50;17.50;;;;;23.42;83.41;101146.09;4954212;28;9584;-68
2023/08/19 07:15:55;;;;;;;;;16.50;16.25;;;;;23.47;83.05;101150.78;4952875;28;8841;-68
2023/08/19 07:18:26;;;;;;;;;17.50;17.00;;;;;23.49;82.95;101159.56;4949914;28;8920;-67
2023/08/19 07:20:54;;;;;;;;;21.25;19.75;;;;;23.52;83.01;101178.25;4952327;28;8845;-68
2023/08/19 07:23:24;;;;;;;;;18.00;17.25;;;;;23.53;83.15;101169.72;4953879;28;8849;-68
2023/08/19 07:25:50;;;;;;;;;18.75;17.75;;;;;23.55;83.16;101139.25;4953462;28;8869;-67
2023/08/19 07:28:21;;;;;;;;;22.00;21.00;;;;;23.54;83.18;101124.69;4953811;28;8826;-67
2023/08/19 07:30:48;;;;;;;;;21.25;21.25;;;;;23.54;83.69;101132.09;4950076;28;8843;-68
2023/08/19 07:33:15;;;;;;;;;28.75;27.00;;;;;23.45;84.00;101162.84;4936576;28;8827;-68
2023/08/19 07:35:42;;;;;;;;;20.25;18.50;;;;;23.45;84.33;101171.06;4952126;28;8869;-67
2023/08/19 07:38:09;;;;;;;;;19.50;19.50;;;;;23.45;84.54;101170.25;4944770;28;9288;-68
2023/08/19 07:40:36;;;;;;;;;19.00;19.00;;;;;23.46;84.58;101163.69;4951035;28;8830;-68
2023/08/19 07:43:03;;;;;;;;;18.50;18.50;;;;;23.44;84.65;101166.69;4949550;28;8917;-66
2023/08/19 07:45:29;;;;;;;;;22.00;20.50;;;;;23.45;84.73;101184.81;4932818;28;8862;-67
2023/08/19 07:47:56;;;;;;;;;19.00;19.00;;;;;23.48;84.86;101197.19;4950463;28;8872;-67
2023/08/19 07:50:23;;;;;;;;;18.25;18.25;;;;;23.51;85.06;101193.91;4947749;28;8833;-67
2023/08/19 07:52:50;;;;;;;;;19.75;19.50;;;;;23.52;85.10;101201.06;4947387;28;8853;-67
2023/08/19 07:55:16;;;;;;;;;27.50;27.50;;;;;23.49;85.17;101209.84;4946026;28;8838;-67
2023/08/19 07:57:43;;;;;;;;;24.25;24.25;;;;;23.48;85.11;101210.13;4946530;28;9549;-67
2023/08/19 08:00:09;;;;;;;;;21.50;21.00;;;;;23.51;85.27;101206.84;4947597;28;8920;-67
2023/08/19 08:02:39;;;;;;;;;18.25;16.75;;;;;23.53;84.98;101205.44;4949267;28;8902;-67
2023/08/19 08:05:06;;;;;;;;;22.75;21.00;;;;;23.53;84.96;101205.44;4944645;28;9674;-67
2023/08/19 08:07:33;;;;;;;;;22.25;21.50;;;;;23.54;85.03;101198.88;4948097;28;8844;-67
2023/08/19 08:10:03;;;;;;;;;24.00;23.00;;;;;23.55;84.96;101197.78;4948950;28;8852;-67
2023/08/19 08:12:31;;;;;;;;;25.50;23.50;;;;;23.58;84.79;101208.22;4949423;28;8977;-67
2023/08/19 08:15:00;;;;;;;;;26.50;26.50;;;;;23.62;84.58;101225.00;4947316;28;8829;-67
2023/08/19 08:17:27;;;;;;;;;23.25;23.25;;;;;23.63;84.83;101221.97;4946622;28;8845;-67
2023/08/19 08:19:56;;;;;;;;;23.75;23.75;;;;;23.67;84.79;101206.63;4944082;28;10544;-67
2023/08/19 08:22:23;;;;;;;;;24.50;23.50;;;;;23.68;84.76;101204.69;4944371;28;8842;-67
2023/08/19 08:24:50;;;;;;;;;20.75;20.75;;;;;23.66;84.98;101213.22;4952687;28;8872;-67
2023/08/19 08:27:16;;;;;;;;;25.00;22.50;;;;;23.65;85.19;101217.03;4935448;28;8814;-67
2023/08/19 08:29:42;;;;;;;;;24.25;22.00;;;;;23.65;85.31;101238.19;4952372;28;8944;-68
2023/08/19 08:32:09;;;;;;;;;30.75;30.75;;;;;23.56;85.99;101242.56;4952589;28;8814;-67
2023/08/19 08:34:36;;;;;;;;;29.25;25.25;;;;;23.57;86.29;101228.53;4951999;28;8846;-68
2023/08/19 08:37:03;;;;;;;;;20.50;20.50;;;;;23.59;86.22;101240.09;4954080;28;8827;-68
2023/08/19 08:39:30;;;;;;;;;31.25;27.25;;;;;23.59;86.17;101240.09;4953888;28;8920;-67
2023/08/19 08:41:58;;;;;;;;;25.50;25.50;;;;;23.63;86.34;101251.38;4952223;28;8833;-67
2023/08/19 08:44:26;;;;;;;;;27.25;24.50;;;;;23.66;86.40;101246.19;4951979;28;8909;-67
2023/08/19 08:46:55;;;;;;;;;29.50;27.00;;;;;23.72;86.28;101251.69;4952376;28;8822;-67
2023/08/19 08:49:24;;;;;;;;;29.00;28.00;;;;;23.71;86.39;101245.38;4950935;28;8905;-67
2023/08/19 08:51:52;;;;;;;;;31.00;30.00;;;;;23.73;86.29;101256.09;4952065;28;8915;-67
2023/08/19 08:54:21;;;;;;;;;31.25;28.00;;;;;23.73;86.52;101267.91;4934287;28;8860;-67
2023/08/19 08:56:48;;;;;;;;;22.75;22.75;;;;;23.76;86.39;101277.53;4944363;28;8846;-67
2023/08/19 08:59:16;;;;;;;;;19.50;19.00;;;;;23.84;86.32;101282.50;4952292;28;8858;-68
2023/08/19 09:01:46;;;;;;;;;28.25;27.50;;;;;23.90;86.15;101289.66;4934431;28;8864;-67
2023/08/19 09:04:15;;;;;;;;;28.50;28.50;;;;;23.99;85.84;101287.22;4952041;28;8904;-67
2023/08/19 09:06:43;;;;;;;;;25.50;23.75;;;;;24.09;85.58;101285.28;4934064;28;8858;-68
2023/08/19 09:09:13;;;;;;;;;28.25;25.00;;;;;24.13;85.07;101278.13;4951439;28;8810;-68
2023/08/19 09:11:44;;;;;;;;;24.00;23.75;;;;;24.16;84.76;101290.53;4951724;28;8834;-67
2023/08/19 09:14:22;;;;;;;;;35.00;31.25;;;;;24.10;84.22;101303.44;4952018;28;8976;-67
2023/08/19 09:16:51;;;;;;;;;27.50;26.00;;;;;24.09;83.71;101310.03;4934801;28;8988;-67
2023/08/19 09:19:18;;;;;;;;;30.25;28.00;;;;;24.12;83.32;101320.50;4950451;29;8846;-67
2023/08/19 09:21:44;;;;;;;;;24.50;24.50;;;;;24.14;83.06;101322.97;4955040;28;8861;-68
2023/08/19 09:24:16;;;;;;;;;27.25;26.75;;;;;24.16;82.70;101318.84;4943917;29;8842;-69
2023/08/19 09:26:43;;;;;;;;;25.25;25.25;;;;;24.14;82.40;101325.72;4951946;29;8852;-68
2023/08/19 09:29:11;;;;;;;;;25.00;20.00;;;;;24.16;82.26;101320.78;4950804;29;9620;-68
2023/08/19 09:31:40;;;;;;;;;25.75;24.50;;;;;24.17;82.06;101337.00;4951581;29;8842;-67
2023/08/19 09:34:07;;;;;;;;;20.50;17.00;;;;;24.15;81.44;101330.97;4954261;28;8829;-68
2023/08/19 09:36:33;;;;;;;;;13.50;13.50;;;;;24.19;81.09;101342.25;4952394;29;8948;-68
2023/08/19 09:39:00;;;;;;;;;20.00;17.75;;;;;24.19;81.01;101345.00;4951584;29;8829;-67
2023/08/19 09:41:28;;;;;;;;;15.25;14.50;;;;;24.19;80.26;101353.25;4948790;29;8866;-67
2023/08/19 09:43:55;;;;;;;;;13.25;13.00;;;;;24.23;79.54;101353.53;4941517;28;8884;-68
2023/08/19 09:46:33;;;;;;;;;11.75;11.75;;;;;24.27;79.19;101365.66;4942901;29;8906;-68
2023/08/19 09:49:00;;;;;;;;;13.50;13.00;;;;;24.25;78.76;101365.06;4942946;29;9579;-67
2023/08/19 09:51:28;;;;;;;;;14.25;13.25;;;;;24.19;78.09;101369.75;4944639;29;8939;-67
2023/08/19 09:53:55;;;;;;;;;11.00;10.50;;;;;24.17;77.77;101383.75;4942851;29;8912;-68
2023/08/19 09:56:25;;;;;;;;;11.75;10.75;;;;;24.15;77.68;101391.47;4945127;29;8912;-68
2023/08/19 09:58:53;;;;;;;;;10.00;8.75;;;;;24.20;77.58;101373.34;4943622;28;8865;-68
2023/08/19 10:01:22;;;;;;;;;9.00;6.75;;;;;24.24;77.57;101379.94;4947721;28;8926;-67
2023/08/19 10:03:49;;;;;;;;;7.50;7.50;;;;;24.18;76.60;101379.94;4946749;29;8935;-68
2023/08/19 10:06:26;;;;;;;;;7.00;7.00;;;;;24.22;76.30;101374.69;4942235;29;8849;-68
2023/08/19 10:09:00;;;;;;;;;6.00;6.00;;;;;24.29;75.15;101379.94;4941754;29;8876;-67
2023/08/19 10:11:29;;;;;;;;;8.25;6.25;;;;;24.32;74.13;101388.47;4950478;28;8834;-68
2023/08/19 10:14:01;;;;;;;;;7.00;7.00;;;;;24.41;73.17;101397.88;4951667;29;8864;-68
2023/08/19 10:16:28;;;;;;;;;7.00;6.75;;;;;24.44;71.79;101409.44;4951592;29;8964;-68
2023/08/19 10:18:57;;;;;;;;;8.50;8.00;;;;;24.42;71.05;101406.94;4951553;29;8868;-68
2023/08/19 10:21:25;;;;;;;;;5.67;5.67;;;;;24.47;70.28;101408.88;4954010;28;8857;-68
2023/08/19 10:23:52;;;;;;;;;6.00;6.00;;;;;24.51;69.85;101413.59;4937732;28;9619;-67
2023/08/19 10:26:19;;;;;;;;;4.75;4.75;;;;;24.46;69.10;101408.06;4936788;28;8830;-67
2023/08/19 10:29:05;;;;;;;;;5.25;5.25;;;;;24.44;69.28;101423.22;4954818;28;9651;-68
2023/08/19 10:31:32;;;;;;;;;6.75;6.75;;;;;24.37;68.82;101437.19;4954647;28;9776;-68
2023/08/19 10:33:59;;;;;;;;;6.00;6.00;;;;;24.30;68.97;101431.94;4938999;28;8845;-68
2023/08/19 10:36:33;;;;;;;;;5.75;5.25;;;;;24.31;69.53;101441.88;4937550;28;8861;-68
2023/08/19 10:39:00;;;;;;;;;5.00;5.00;;;;;24.26;69.59;101436.31;4954789;28;8904;-68
2023/08/19 10:41:33;;;;;;;;;6.75;6.00;;;;;24.27;69.67;101454.50;4953303;28;9567;-67
2023/08/19 10:44:07;;;;;;;;;7.25;7.25;;;;;24.26;69.82;101463.00;4954595;28;8829;-68
2023/08/19 10:46:37;;;;;;;;;5.75;5.75;;;;;24.27;69.88;101476.53;4936185;28;8853;-67
2023/08/19 10:49:06;;;;;;;;;8.00;8.00;;;;;24.22;69.62;101481.97;4953727;28;8848;-68
2023/08/19 10:51:47;;;;;;;;;6.00;6.00;;;;;24.22;69.94;101479.22;4952846;28;8904;-68
2023/08/19 10:54:14;;;;;;;;;6.00;6.00;;;;;24.21;70.09;101474.00;4955602;28;8846;-67
2023/08/19 10:57:07;;;;;;;;;11.50;8.75;;;;;24.23;70.24;101466.34;4951709;28;8849;-68
2023/08/19 10:59:34;;;;;;;;;7.00;6.50;;;;;24.21;70.01;101461.09;4951388;28;8838;-67
2023/08/19 11:02:02;;;;;;;;;10.25;9.75;;;;;24.17;70.07;101466.28;4945968;28;8905;-68
2023/08/19 11:04:28;;;;;;;;;7.00;7.00;;;;;24.17;69.94;101480.03;4953459;28;8846;-68
2023/08/19 11:06:56;;;;;;;;;8.25;7.25;;;;;24.14;69.94;101488.84;4952453;28;8850;-67
2023/08/19 11:09:24;;;;;;;;;9.25;8.00;;;;;24.10;69.90;101475.88;4937229;28;8918;-67
2023/08/19 11:11:51;;;;;;;;;10.50;9.50;;;;;24.10;69.92;101475.88;4920154;28;8829;-68
2023/08/19 11:14:18;;;;;;;;;9.25;7.75;;;;;24.10;70.04;101478.63;4952003;28;8849;-67
2023/08/19 11:16:52;;;;;;;;;7.75;7.00;;;;;24.12;70.45;101485.53;4935790;28;8858;-66
2023/08/19 11:19:19;;;;;;;;;8.75;7.50;;;;;24.14;70.24;101499.00;4947115;28;8856;-67
2023/08/19 11:21:47;;;;;;;;;8.00;7.75;;;;;24.12;70.65;101501.22;4950540;28;8870;-67
2023/08/19 11:24:14;;;;;;;;;10.50;9.50;;;;;24.16;71.18;101525.16;4953741;28;8842;-68